createdAt,value
2019-01-23T00:02:18.103Z,36.27
2019-01-23T00:04:46.486Z,32.47
2019-01-23T00:07:14.935Z,34.33
2019-01-23T00:09:43.298Z,37.00
2019-01-23T00:12:11.640Z,35.30
2019-01-23T00:14:40.081Z,34.83
2019-01-23T00:17:08.471Z,39.63
2019-01-23T00:19:36.845Z,38.83
2019-01-23T00:22:05.271Z,38.53
2019-01-23T00:24:33.644Z,38.93
2019-01-23T00:27:02.170Z,35.80
2019-01-23T00:29:30.582Z,36.23
2019-01-23T00:31:58.958Z,41.30
2019-01-23T00:34:27.271Z,38.37
2019-01-23T00:36:55.636Z,36.53
2019-01-23T00:39:24.103Z,37.23
2019-01-23T00:41:52.404Z,35.57
2019-01-23T00:44:20.843Z,36.03
2019-01-23T00:46:49.283Z,37.07
2019-01-23T00:49:17.689Z,35.23
2019-01-23T00:51:46.000Z,38.37
2019-01-23T00:54:14.650Z,36.33
2019-01-23T00:56:43.012Z,38.70
2019-01-23T00:59:11.405Z,35.33
2019-01-23T01:01:39.781Z,39.20
2019-01-23T01:04:08.087Z,37.77
2019-01-23T01:06:36.618Z,39.30
2019-01-23T01:09:07.808Z,38.13
2019-01-23T01:11:36.164Z,40.10
2019-01-23T01:14:04.650Z,39.80
2019-01-23T01:16:33.029Z,39.90
2019-01-23T01:19:01.472Z,40.07
2019-01-23T01:21:29.908Z,37.83
2019-01-23T01:23:58.290Z,39.33
2019-01-23T01:26:26.670Z,38.27
2019-01-23T01:28:56.139Z,38.30
2019-01-23T01:31:24.789Z,37.87
2019-01-23T01:33:53.100Z,38.63
2019-01-23T01:36:22.781Z,37.00
2019-01-23T01:38:51.367Z,38.07
2019-01-23T01:41:19.795Z,37.57
2019-01-23T01:43:48.166Z,39.83
2019-01-23T01:46:16.656Z,38.50
2019-01-23T01:48:45.114Z,38.80
2019-01-23T01:51:13.493Z,37.90
2019-01-23T01:53:41.892Z,36.70
2019-01-23T01:56:10.282Z,34.97
2019-01-23T01:58:38.666Z,37.93
2019-01-23T02:01:06.992Z,36.87
2019-01-23T02:03:35.353Z,37.33
2019-01-23T02:06:03.842Z,39.53
2019-01-23T02:08:32.253Z,39.00
2019-01-23T02:11:00.715Z,39.83
2019-01-23T02:13:29.083Z,40.10
2019-01-23T02:15:57.536Z,37.17
2019-01-23T02:18:25.831Z,37.07
2019-01-23T02:20:54.219Z,36.50
2019-01-23T02:23:22.585Z,36.20
2019-01-23T02:25:51.053Z,37.50
2019-01-23T02:28:19.416Z,35.80
2019-01-23T02:30:47.884Z,39.07
2019-01-23T02:33:16.430Z,40.63
2019-01-23T02:35:44.814Z,39.13
2019-01-23T02:38:13.177Z,35.67
2019-01-23T02:40:41.566Z,36.30
2019-01-23T02:43:09.957Z,37.20
2019-01-23T02:45:38.280Z,37.27
2019-01-23T02:48:06.774Z,37.37
2019-01-23T02:50:35.143Z,34.83
2019-01-23T02:53:03.532Z,36.00
2019-01-23T02:55:32.055Z,37.43
2019-01-23T02:58:00.436Z,36.17
2019-01-23T03:00:28.752Z,38.40
2019-01-23T03:02:57.215Z,37.97
2019-01-23T03:05:25.622Z,36.27
2019-01-23T03:07:54.086Z,38.43
2019-01-23T03:10:22.534Z,38.47
2019-01-23T03:12:50.908Z,36.70
2019-01-23T03:15:19.285Z,35.67
2019-01-23T03:17:47.620Z,35.30
2019-01-23T03:20:17.532Z,36.23
2019-01-23T03:22:46.015Z,36.00
2019-01-23T03:25:15.008Z,35.27
2019-01-23T03:27:43.420Z,34.10
2019-01-23T03:30:15.431Z,36.17
2019-01-23T03:32:43.860Z,36.03
2019-01-23T03:35:12.229Z,37.13
2019-01-23T03:37:40.625Z,36.93
2019-01-23T03:40:14.563Z,37.00
2019-01-23T03:42:42.983Z,36.57
2019-01-23T03:45:13.364Z,36.23
2019-01-23T03:47:41.740Z,38.07
2019-01-23T03:50:12.491Z,36.23
2019-01-23T03:52:40.997Z,37.27
2019-01-23T03:55:10.594Z,38.80
2019-01-23T03:57:38.942Z,37.33
2019-01-23T04:00:10.596Z,38.63
2019-01-23T04:02:39.172Z,36.27
2019-01-23T04:05:09.426Z,38.13
2019-01-23T04:07:37.781Z,36.67
2019-01-23T04:10:09.438Z,37.50
2019-01-23T04:12:37.942Z,35.67
2019-01-23T04:15:08.882Z,37.43
2019-01-23T04:17:37.210Z,36.57
2019-01-23T04:20:08.879Z,38.07
2019-01-23T04:22:37.256Z,37.33
2019-01-23T04:25:07.945Z,37.37
2019-01-23T04:27:36.324Z,37.30
2019-01-23T04:30:13.832Z,35.67
2019-01-23T04:32:42.224Z,36.60
2019-01-23T04:35:10.603Z,37.07
2019-01-23T04:37:38.968Z,36.50
2019-01-23T04:40:09.898Z,36.97
2019-01-23T04:42:38.265Z,37.93
2019-01-23T04:45:09.364Z,38.33
2019-01-23T04:47:37.809Z,36.73
2019-01-23T04:50:09.129Z,36.83
2019-01-23T04:52:39.159Z,36.27
2019-01-23T04:55:08.122Z,35.23
2019-01-23T04:57:36.490Z,36.17
2019-01-23T05:00:08.334Z,36.50
2019-01-23T05:02:36.730Z,39.83
2019-01-23T05:05:07.483Z,38.23
2019-01-23T05:07:35.932Z,38.63
2019-01-23T05:10:06.058Z,38.70
2019-01-23T05:12:34.494Z,37.97
2019-01-23T05:15:02.898Z,37.87
2019-01-23T05:17:31.262Z,37.43
2019-01-23T05:19:59.890Z,37.07
2019-01-23T05:22:28.238Z,39.87
2019-01-23T05:24:56.763Z,38.23
2019-01-23T05:27:26.454Z,38.07
2019-01-23T05:29:55.260Z,37.30
2019-01-23T05:32:23.680Z,36.87
2019-01-23T05:34:52.071Z,38.40
2019-01-23T05:37:20.506Z,38.40
2019-01-23T05:39:48.914Z,38.83
2019-01-23T05:42:17.274Z,40.37
2019-01-23T05:44:45.673Z,38.87
2019-01-23T05:47:14.131Z,39.40
2019-01-23T05:49:42.542Z,40.20
2019-01-23T05:52:11.155Z,38.63
2019-01-23T05:54:39.617Z,38.40
2019-01-23T05:57:08.057Z,37.93
2019-01-23T05:59:36.491Z,38.77
2019-01-23T06:02:05.139Z,40.53
2019-01-23T06:04:33.674Z,39.83
2019-01-23T06:07:02.071Z,40.37
2019-01-23T06:09:30.522Z,39.03
2019-01-23T06:11:59.437Z,38.73
2019-01-23T06:14:27.749Z,40.43
2019-01-23T06:16:56.210Z,36.20
2019-01-23T06:19:24.542Z,38.87
2019-01-23T06:21:53.098Z,41.07
2019-01-23T06:24:21.506Z,39.40
2019-01-23T06:26:49.901Z,40.33
2019-01-23T06:29:18.460Z,38.13
2019-01-23T06:31:46.864Z,38.17
2019-01-23T06:34:15.311Z,37.27
2019-01-23T06:36:43.774Z,39.50
2019-01-23T06:39:12.276Z,39.40
2019-01-23T06:41:40.739Z,39.73
2019-01-23T06:44:09.150Z,40.63
2019-01-23T06:46:37.645Z,38.93
2019-01-23T06:49:06.037Z,41.63
2019-01-23T06:51:34.336Z,41.80
2019-01-23T06:54:02.918Z,44.37
2019-01-23T06:56:31.293Z,43.67
2019-01-23T06:58:59.703Z,44.07
2019-01-23T07:01:28.106Z,40.93
2019-01-23T07:03:56.666Z,44.27
2019-01-23T07:06:25.197Z,45.93
2019-01-23T07:08:55.095Z,43.83
2019-01-23T07:11:23.548Z,44.63
2019-01-23T07:13:51.888Z,43.77
2019-01-23T07:16:20.262Z,40.30
2019-01-23T07:18:48.694Z,44.17
2019-01-23T07:21:17.100Z,47.13
2019-01-23T07:23:45.480Z,41.90
2019-01-23T07:26:13.862Z,43.67
2019-01-23T07:28:42.233Z,42.60
2019-01-23T07:31:10.638Z,44.17
2019-01-23T07:33:39.026Z,41.47
2019-01-23T07:36:07.442Z,41.33
2019-01-23T07:38:35.881Z,46.70
2019-01-23T07:41:04.292Z,46.00
2019-01-23T07:43:32.661Z,43.83
2019-01-23T07:46:01.107Z,45.17
2019-01-23T07:48:29.455Z,44.10
2019-01-23T07:50:57.963Z,41.87
2019-01-23T07:53:26.293Z,44.30
2019-01-23T07:55:54.842Z,45.33
2019-01-23T07:58:23.237Z,44.87
2019-01-23T08:00:51.675Z,43.53
2019-01-23T08:03:21.788Z,42.70
2019-01-23T08:05:50.910Z,44.50
2019-01-23T08:08:19.341Z,44.17
2019-01-23T08:10:47.839Z,43.03
2019-01-23T08:13:16.297Z,42.33
2019-01-23T08:15:44.981Z,41.70
2019-01-23T08:18:13.441Z,40.70
2019-01-23T08:20:41.920Z,42.30
2019-01-23T08:23:10.258Z,40.30
2019-01-23T08:25:38.784Z,38.47
2019-01-23T08:28:07.155Z,39.63
2019-01-23T08:30:39.308Z,41.67
2019-01-23T08:33:05.592Z,41.43
2019-01-23T08:35:34.151Z,43.87
2019-01-23T08:38:02.599Z,45.53
2019-01-23T08:40:30.986Z,39.70
2019-01-23T08:42:59.461Z,42.77
2019-01-23T08:45:27.848Z,41.47
2019-01-23T08:47:56.407Z,42.30
2019-01-23T08:50:30.851Z,42.40
2019-01-23T08:52:59.244Z,42.57
2019-01-23T08:55:27.721Z,44.47
2019-01-23T08:57:56.214Z,44.43
2019-01-23T09:00:24.632Z,44.27
2019-01-23T09:02:52.971Z,41.50
2019-01-23T09:05:21.361Z,43.47
2019-01-23T09:07:49.964Z,43.73
2019-01-23T09:10:26.081Z,42.43
2019-01-23T09:12:54.514Z,45.00
2019-01-23T09:15:22.911Z,44.53
2019-01-23T09:17:51.323Z,42.10
2019-01-23T09:20:22.970Z,41.67
2019-01-23T09:22:51.331Z,39.97
2019-01-23T09:25:24.702Z,41.77
2019-01-23T09:27:53.094Z,40.53
2019-01-23T09:30:30.837Z,41.30
2019-01-23T09:33:20.537Z,39.40
2019-01-23T09:36:13.039Z,40.20
2019-01-23T09:39:08.897Z,40.40
2019-01-23T09:41:52.676Z,42.47
2019-01-23T09:44:24.387Z,43.23
2019-01-23T09:47:19.521Z,42.63
2019-01-23T09:50:06.105Z,41.80
2019-01-23T09:52:49.741Z,45.00
2019-01-23T09:55:18.126Z,42.67
2019-01-23T09:57:46.887Z,43.57
2019-01-23T10:00:23.981Z,45.80
2019-01-23T10:02:52.395Z,42.43
2019-01-23T10:05:20.858Z,41.83
2019-01-23T10:07:49.422Z,44.27
2019-01-23T10:10:20.393Z,43.03
2019-01-23T10:12:48.787Z,43.53
2019-01-23T10:15:26.192Z,39.17
2019-01-23T10:17:54.978Z,41.60
2019-01-23T10:20:23.442Z,41.47
2019-01-23T10:22:52.057Z,40.47
2019-01-23T10:25:20.437Z,41.03
2019-01-23T10:27:48.907Z,40.53
2019-01-23T10:30:17.385Z,41.47
2019-01-23T10:32:46.003Z,39.27
2019-01-23T10:35:17.463Z,40.27
2019-01-23T10:38:05.380Z,39.83
2019-01-23T10:40:33.870Z,38.20
2019-01-23T10:43:02.270Z,40.93
2019-01-23T10:45:30.666Z,39.67
2019-01-23T10:47:59.344Z,38.80
2019-01-23T10:50:27.806Z,39.10
2019-01-23T10:52:56.186Z,38.57
2019-01-23T10:55:24.701Z,38.67
2019-01-23T10:57:53.281Z,39.50
2019-01-23T11:00:23.204Z,40.27
2019-01-23T11:02:51.696Z,39.50
2019-01-23T11:05:22.099Z,37.67
2019-01-23T11:07:50.528Z,37.00
2019-01-23T11:10:21.631Z,38.13
2019-01-23T11:12:50.025Z,37.30
2019-01-23T11:15:18.333Z,39.40
2019-01-23T11:17:46.670Z,38.03
2019-01-23T11:20:17.383Z,36.23
2019-01-23T11:22:45.905Z,36.17
2019-01-23T11:25:15.424Z,35.97
2019-01-23T11:27:54.845Z,35.90
2019-01-23T11:30:25.383Z,36.83
2019-01-23T11:32:54.232Z,36.33
2019-01-23T11:35:22.587Z,39.13
2019-01-23T11:37:51.041Z,35.30
2019-01-23T11:40:22.311Z,38.13
2019-01-23T11:42:50.802Z,36.13
2019-01-23T11:45:19.242Z,36.30
2019-01-23T11:47:48.032Z,34.97
2019-01-23T11:50:21.980Z,36.03
2019-01-23T11:52:51.411Z,38.23
2019-01-23T11:55:21.490Z,36.33
2019-01-23T11:57:49.953Z,37.20
2019-01-23T12:00:24.118Z,36.93
2019-01-23T12:02:55.913Z,37.53
2019-01-23T12:05:24.282Z,35.33
2019-01-23T12:07:52.678Z,34.67
2019-01-23T12:10:24.770Z,33.10
2019-01-23T12:12:53.189Z,38.73
2019-01-23T12:15:23.551Z,33.90
2019-01-23T12:17:52.340Z,35.87
2019-01-23T12:20:20.868Z,35.73
2019-01-23T12:22:49.332Z,33.83
2019-01-23T12:25:17.706Z,35.00
2019-01-23T12:27:46.145Z,35.43
2019-01-23T12:30:20.647Z,34.30
2019-01-23T12:32:49.211Z,34.17
2019-01-23T12:35:17.555Z,36.60
2019-01-23T12:37:45.898Z,37.07
2019-01-23T12:40:15.992Z,33.13
2019-01-23T12:42:44.432Z,35.67
2019-01-23T12:45:18.866Z,34.10
2019-01-23T12:47:47.299Z,32.80
2019-01-23T12:50:18.770Z,32.30
2019-01-23T12:52:47.423Z,32.97
2019-01-23T12:55:15.810Z,31.47
2019-01-23T12:57:44.219Z,32.90
2019-01-23T13:00:19.416Z,32.57
2019-01-23T13:02:47.808Z,31.80
2019-01-23T13:05:18.297Z,30.23
2019-01-23T13:07:46.755Z,33.23
2019-01-23T13:10:17.930Z,31.73
2019-01-23T13:12:46.363Z,29.60
2019-01-23T13:15:17.981Z,32.70
2019-01-23T13:17:46.469Z,32.53
2019-01-23T13:20:16.830Z,31.57
2019-01-23T13:22:45.276Z,29.97
2019-01-23T13:25:15.929Z,31.80
2019-01-23T13:27:44.418Z,34.03
2019-01-23T13:30:15.582Z,33.63
2019-01-23T13:32:43.966Z,29.97
2019-01-23T13:35:15.103Z,32.70
2019-01-23T13:37:43.506Z,31.23
2019-01-23T13:40:20.928Z,31.73
2019-01-23T13:42:49.304Z,29.13
2019-01-23T13:45:17.712Z,31.57
2019-01-23T13:47:46.697Z,30.73
2019-01-23T13:50:15.223Z,33.00
2019-01-23T13:52:43.847Z,31.40
2019-01-23T13:55:15.446Z,30.80
2019-01-23T13:57:43.938Z,29.57
2019-01-23T14:00:18.653Z,30.90
2019-01-23T14:02:47.118Z,28.93
2019-01-23T14:05:15.529Z,29.60
2019-01-23T14:07:44.061Z,29.57
2019-01-23T14:10:17.041Z,29.50
2019-01-23T14:12:45.444Z,30.33
2019-01-23T14:15:17.218Z,30.40
2019-01-23T14:17:45.608Z,27.03
2019-01-23T14:20:15.955Z,28.37
2019-01-23T14:22:44.379Z,28.57
2019-01-23T14:25:15.411Z,27.87
2019-01-23T14:27:43.798Z,28.37
2019-01-23T14:30:18.154Z,28.90
2019-01-23T14:32:46.585Z,28.73
2019-01-23T14:35:15.032Z,29.13
2019-01-23T14:37:43.420Z,28.20
2019-01-23T14:40:12.019Z,29.40
2019-01-23T14:42:40.570Z,29.40
2019-01-23T14:45:12.602Z,29.20
2019-01-23T14:47:41.282Z,28.23
2019-01-23T14:50:15.553Z,29.00
2019-01-23T14:52:44.887Z,26.07
2019-01-23T14:55:13.355Z,28.57
2019-01-23T14:57:41.986Z,28.07
2019-01-23T15:00:19.305Z,28.03
2019-01-23T15:02:47.794Z,28.40
2019-01-23T15:05:16.694Z,28.00
2019-01-23T15:07:45.092Z,26.47
2019-01-23T15:10:21.645Z,27.57
2019-01-23T15:12:50.031Z,28.60
2019-01-23T15:15:18.805Z,26.70
2019-01-23T15:17:47.436Z,26.30
2019-01-23T15:20:21.438Z,27.30
2019-01-23T15:22:50.261Z,28.20
2019-01-23T15:25:18.794Z,28.50
2019-01-23T15:27:47.198Z,27.63
2019-01-23T15:30:21.066Z,26.70
2019-01-23T15:32:49.469Z,25.17
2019-01-23T15:35:18.967Z,26.47
2019-01-23T15:37:47.367Z,24.83
2019-01-23T15:40:21.215Z,26.97
2019-01-23T15:42:49.610Z,26.97
2019-01-23T15:45:17.975Z,26.73
2019-01-23T15:47:47.320Z,25.43
2019-01-23T15:50:18.506Z,25.77
2019-01-23T15:52:47.031Z,25.27
2019-01-23T15:55:17.454Z,26.10
2019-01-23T15:57:45.991Z,25.77
2019-01-23T16:00:23.254Z,24.23
2019-01-23T16:02:51.727Z,25.77
2019-01-23T16:05:20.122Z,25.13
2019-01-23T16:07:48.507Z,25.50
2019-01-23T16:10:22.048Z,26.20
2019-01-23T16:12:50.426Z,24.93
2019-01-23T16:15:21.079Z,24.20
2019-01-23T16:17:49.511Z,25.57
2019-01-23T16:20:17.913Z,25.80
2019-01-23T16:22:46.601Z,24.67
2019-01-23T16:25:16.630Z,22.23
2019-01-23T16:27:45.659Z,23.60
2019-01-23T16:30:22.512Z,23.63
2019-01-23T16:32:50.874Z,23.83
2019-01-23T16:35:19.268Z,25.20
2019-01-23T16:37:47.719Z,24.83
2019-01-23T16:40:16.131Z,25.33
2019-01-23T16:42:44.529Z,25.97
2019-01-23T16:45:16.175Z,26.43
2019-01-23T16:47:45.687Z,25.80
2019-01-23T16:50:16.945Z,24.87
2019-01-23T16:52:45.534Z,27.10
2019-01-23T16:55:13.955Z,26.20
2019-01-23T16:57:42.577Z,24.67
2019-01-23T17:00:14.323Z,25.43
2019-01-23T17:02:42.762Z,25.23
2019-01-23T17:05:14.636Z,25.70
2019-01-23T17:07:43.114Z,26.67
2019-01-23T17:10:14.841Z,26.77
2019-01-23T17:12:43.299Z,26.43
2019-01-23T17:15:12.029Z,26.63
2019-01-23T17:17:40.421Z,27.33
2019-01-23T17:20:20.673Z,26.93
2019-01-23T17:22:49.129Z,27.60
2019-01-23T17:25:17.580Z,29.37
2019-01-23T17:27:46.057Z,28.20
2019-01-23T17:30:19.485Z,28.40
2019-01-23T17:32:47.909Z,29.73
2019-01-23T17:35:18.465Z,30.50
2019-01-23T17:37:46.898Z,29.07
2019-01-23T17:40:18.093Z,31.17
2019-01-23T17:42:46.642Z,31.40
2019-01-23T17:45:36.242Z,30.60
2019-01-23T17:48:06.743Z,30.03
2019-01-23T17:50:35.289Z,32.00
2019-01-23T17:53:03.705Z,31.57
2019-01-23T17:55:35.006Z,32.77
2019-01-23T17:58:03.581Z,33.50
2019-01-23T18:00:33.632Z,31.83
2019-01-23T18:03:02.028Z,33.17
2019-01-23T18:05:30.417Z,32.17
2019-01-23T18:07:58.796Z,32.10
2019-01-23T18:10:27.212Z,33.13
2019-01-23T18:12:55.726Z,34.23
2019-01-23T18:15:29.860Z,34.27
2019-01-23T18:17:58.297Z,34.00
2019-01-23T18:20:28.687Z,34.00
2019-01-23T18:22:57.238Z,35.67
2019-01-23T18:25:25.889Z,36.87
2019-01-23T18:27:54.285Z,36.67
2019-01-23T18:30:32.203Z,36.10
2019-01-23T18:33:01.862Z,38.80
2019-01-23T18:35:55.212Z,38.07
2019-01-23T18:38:29.835Z,37.70
2019-01-23T18:41:04.238Z,36.73
2019-01-23T18:43:47.980Z,36.83
2019-01-23T18:46:46.793Z,38.47
2019-01-23T18:49:35.094Z,37.10
2019-01-23T18:52:11.836Z,35.87
2019-01-23T18:54:41.146Z,34.17
2019-01-23T18:57:18.419Z,39.67
2019-01-23T18:59:46.785Z,39.50
2019-01-23T19:02:15.180Z,37.90
2019-01-23T19:04:43.719Z,33.70
2019-01-23T19:07:12.230Z,35.57
2019-01-23T19:09:41.048Z,35.90
2019-01-23T19:12:09.618Z,35.47
2019-01-23T19:14:38.080Z,33.43
2019-01-23T19:17:06.667Z,34.97
2019-01-23T19:19:35.218Z,36.17
2019-01-23T19:22:03.788Z,38.33
2019-01-23T19:24:47.754Z,37.77
2019-01-23T19:27:23.708Z,36.97
2019-01-23T19:29:53.748Z,36.40
2019-01-23T19:32:22.320Z,36.87
2019-01-23T19:34:50.942Z,35.07
2019-01-23T19:37:19.692Z,38.13
2019-01-23T19:39:50.763Z,37.13
2019-01-23T19:42:19.334Z,38.33
2019-01-23T19:44:47.901Z,36.50
2019-01-23T19:47:16.759Z,36.80
2019-01-23T19:52:35.092Z,38.07
2019-01-23T19:55:05.103Z,37.70
2019-01-23T19:57:33.974Z,37.27
2019-01-23T20:00:06.134Z,35.73
2019-01-23T20:02:36.659Z,36.40
2019-01-23T20:05:09.495Z,37.13
2019-01-23T20:07:39.972Z,36.63
2019-01-23T20:10:14.384Z,37.97
2019-01-23T20:12:43.552Z,38.07
2019-01-23T20:15:15.099Z,37.03
2019-01-23T20:17:44.015Z,36.87
2019-01-23T20:20:16.533Z,37.97
2019-01-23T20:22:45.558Z,36.50
2019-01-23T20:25:19.589Z,37.27
2019-01-23T20:27:48.915Z,36.80
2019-01-23T20:30:30.037Z,35.57
2019-01-23T20:32:58.743Z,38.33
2019-01-23T20:35:28.377Z,37.50
2019-01-23T20:38:00.165Z,37.23
2019-01-23T20:40:30.696Z,37.57
2019-01-23T20:42:59.974Z,37.17
2019-01-23T20:45:29.311Z,34.90
2019-01-23T20:48:02.387Z,34.53
2019-01-23T20:50:32.772Z,35.03
2019-01-23T20:53:03.860Z,35.43
2019-01-23T20:55:35.046Z,33.43
2019-01-23T21:00:33.990Z,37.23
2019-01-23T21:03:03.036Z,36.40
2019-01-23T21:05:31.541Z,36.60
2019-01-23T21:08:02.242Z,35.87
2019-01-23T21:10:32.162Z,34.03
2019-01-23T21:13:01.970Z,34.67
2019-01-23T21:15:31.694Z,36.47
2019-01-23T21:18:00.061Z,35.60
2019-01-23T21:20:30.805Z,36.33
2019-01-23T21:22:59.398Z,36.33
2019-01-23T21:25:27.938Z,36.27
2019-01-23T21:27:56.368Z,34.37
2019-01-23T21:30:26.590Z,34.83
2019-01-23T21:32:55.525Z,33.80
2019-01-23T21:35:24.040Z,34.73
2019-01-23T21:37:53.753Z,33.83
2019-01-23T21:40:24.713Z,33.10
2019-01-23T21:42:53.549Z,32.07
2019-01-23T21:45:21.923Z,33.83
2019-01-23T21:47:51.548Z,34.20
2019-01-23T21:50:22.014Z,33.97
2019-01-23T21:52:50.517Z,34.30
2019-01-23T21:55:22.282Z,33.80
2019-01-23T21:57:51.340Z,34.17
2019-01-23T22:00:25.373Z,32.80
2019-01-23T22:02:54.940Z,32.10
2019-01-23T22:05:23.493Z,34.33
2019-01-23T22:07:51.904Z,33.83
2019-01-23T22:10:21.439Z,35.70
2019-01-23T22:12:49.806Z,35.00
2019-01-23T22:15:26.918Z,34.73
2019-01-23T22:17:55.378Z,34.63
2019-01-23T22:20:24.299Z,32.20
2019-01-23T22:22:52.862Z,35.03
2019-01-23T22:25:23.548Z,33.20
2019-01-23T22:27:52.418Z,36.00
2019-01-23T22:30:28.830Z,35.10
2019-01-23T22:33:02.725Z,32.40
2019-01-23T22:35:33.346Z,34.00
2019-01-23T22:38:06.133Z,34.33
2019-01-23T22:40:36.827Z,34.87
2019-01-23T22:43:05.324Z,34.23
2019-01-23T22:45:33.852Z,31.97
2019-01-23T22:48:03.323Z,32.07
2019-01-23T22:50:31.774Z,33.83
2019-01-23T22:53:00.364Z,35.33
2019-01-23T22:55:28.978Z,36.27
2019-01-23T22:58:00.265Z,34.67
2019-01-23T23:01:01.691Z,34.23
2019-01-23T23:03:34.444Z,33.00
2019-01-23T23:06:03.682Z,35.30
2019-01-23T23:08:32.312Z,34.93
2019-01-23T23:11:00.800Z,34.43
2019-01-23T23:13:29.362Z,34.33
2019-01-23T23:16:00.529Z,33.43
2019-01-23T23:18:29.469Z,34.37
2019-01-23T23:20:58.237Z,36.07
2019-01-23T23:23:33.187Z,33.97
2019-01-23T23:28:53.887Z,33.93
2019-01-23T23:31:49.943Z,34.13
2019-01-23T23:34:20.206Z,31.10
2019-01-23T23:36:49.429Z,33.17
2019-01-23T23:39:17.798Z,33.90
2019-01-23T23:41:46.208Z,33.90
2019-01-23T23:44:19.366Z,33.87
2019-01-23T23:46:47.893Z,34.70
2019-01-23T23:49:16.223Z,34.77
2019-01-23T23:51:47.042Z,33.97
2019-01-23T23:54:15.476Z,35.73
2019-01-23T23:56:43.996Z,34.53
2019-01-23T23:59:12.512Z,35.10
